Terminal Aerodrome Forecast
Issued by NWS

Home | Current Version | Previous Version | Graphics & Text | Print | Product List | Glossary On
Versions: 1 2 3 4 5 6 7 8 9 10 11 12 13 14 15 16
000
FTUS43 KUNR 290100 AAA
TAFGCC
TAF AMD
KGCC 290116Z 2901/2924 34010KT P6SM BKN050
      TEMPO 2903/2905 BKN007
     FM290500 34010KT P6SM OVC007
     FM291500 27007KT P6SM SKC=

USA.gov is the U.S. government's official web portal to all federal, state and local government web resources and services.